Goessel, Kansas
Current Conditions -  °F | °C
As of 2:55 AM on Friday 28 Nov 2014 (Local Time) from KEWK Reporting Station
Clear Clear  
Wind Chill: -3°   Ceiling: Unl
Heat Index:   Visibility: 10mi
Dew Point: -6°   Wind: 20mph
Humidity: 52%   Direction: 200°SSW
Pressure: 30.07"   Gusts: 26mph
Location:  38.25°N, 97.35°W
Report Text: KEWK 280855Z AUTO 20017G23KT 10SM CLR 03/M06 A3007 RMK AO1 57020
Loading
Personal Weather Stations






























Interactive Weather Map New forecast layout! Learn more

10-Day Weather Forecast

Advertisements
Track Severe Weather on mobile